sensor_id;sensor_type;location;lat;lon;timestamp;temperature;humidity
57434;DHT22;43277;52.672;6.984;2023-11-18T00:01:20;1.40;99.90
57434;DHT22;43277;52.672;6.984;2023-11-18T00:03:45;1.40;99.90
57434;DHT22;43277;52.672;6.984;2023-11-18T00:06:11;1.40;99.90
57434;DHT22;43277;52.672;6.984;2023-11-18T00:08:38;1.40;99.90
57434;DHT22;43277;52.672;6.984;2023-11-18T00:11:04;1.50;99.90
57434;DHT22;43277;52.672;6.984;2023-11-18T00:13:30;1.40;99.90
57434;DHT22;43277;52.672;6.984;2023-11-18T00:15:55;1.40;99.90
57434;DHT22;43277;52.672;6.984;2023-11-18T00:18:22;1.40;99.90
57434;DHT22;43277;52.672;6.984;2023-11-18T00:20:47;1.40;99.90
57434;DHT22;43277;52.672;6.984;2023-11-18T00:23:13;1.40;99.90
57434;DHT22;43277;52.672;6.984;2023-11-18T00:25:39;1.30;99.90
57434;DHT22;43277;52.672;6.984;2023-11-18T00:28:05;1.20;99.90
57434;DHT22;43277;52.672;6.984;2023-11-18T00:30:33;1.30;99.90
57434;DHT22;43277;52.672;6.984;2023-11-18T00:32:59;1.20;99.90
57434;DHT22;43277;52.672;6.984;2023-11-18T00:35:24;1.20;99.90
57434;DHT22;43277;52.672;6.984;2023-11-18T00:37:50;1.10;99.90
57434;DHT22;43277;52.672;6.984;2023-11-18T00:40:16;1.30;99.90
57434;DHT22;43277;52.672;6.984;2023-11-18T00:42:44;1.20;99.90
57434;DHT22;43277;52.672;6.984;2023-11-18T00:45:10;1.20;99.90
57434;DHT22;43277;52.672;6.984;2023-11-18T00:47:38;1.20;99.90
57434;DHT22;43277;52.672;6.984;2023-11-18T00:50:04;1.30;99.90
57434;DHT22;43277;52.672;6.984;2023-11-18T00:52:34;1.20;99.90
57434;DHT22;43277;52.672;6.984;2023-11-18T00:55:00;1.20;99.90
57434;DHT22;43277;52.672;6.984;2023-11-18T00:57:26;1.20;99.90
57434;DHT22;43277;52.672;6.984;2023-11-18T00:59:52;1.20;99.90
57434;DHT22;43277;52.672;6.984;2023-11-18T01:02:17;1.20;99.90
57434;DHT22;43277;52.672;6.984;2023-11-18T01:04:46;1.20;99.90
57434;DHT22;43277;52.672;6.984;2023-11-18T01:07:12;1.20;99.90
57434;DHT22;43277;52.672;6.984;2023-11-18T01:09:38;1.20;99.90
57434;DHT22;43277;52.672;6.984;2023-11-18T01:12:05;1.20;99.90
57434;DHT22;43277;52.672;6.984;2023-11-18T01:14:35;1.20;99.90
57434;DHT22;43277;52.672;6.984;2023-11-18T01:17:01;1.30;99.90
57434;DHT22;43277;52.672;6.984;2023-11-18T01:19:27;1.30;99.90
57434;DHT22;43277;52.672;6.984;2023-11-18T01:21:53;1.40;99.90
57434;DHT22;43277;52.672;6.984;2023-11-18T01:24:21;1.40;99.90
57434;DHT22;43277;52.672;6.984;2023-11-18T01:26:47;1.50;99.90
57434;DHT22;43277;52.672;6.984;2023-11-18T01:29:12;1.70;99.90
57434;DHT22;43277;52.672;6.984;2023-11-18T01:31:38;1.50;99.90
57434;DHT22;43277;52.672;6.984;2023-11-18T01:34:06;1.50;99.90
57434;DHT22;43277;52.672;6.984;2023-11-18T01:36:33;1.50;99.90
57434;DHT22;43277;52.672;6.984;2023-11-18T01:38:58;1.50;99.90
57434;DHT22;43277;52.672;6.984;2023-11-18T01:41:24;1.50;99.90
57434;DHT22;43277;52.672;6.984;2023-11-18T01:43:50;1.50;99.90
57434;DHT22;43277;52.672;6.984;2023-11-18T01:46:16;1.50;99.90
57434;DHT22;43277;52.672;6.984;2023-11-18T01:48:43;1.50;99.90
57434;DHT22;43277;52.672;6.984;2023-11-18T01:51:09;1.60;99.90
57434;DHT22;43277;52.672;6.984;2023-11-18T01:53:42;1.60;99.90
57434;DHT22;43277;52.672;6.984;2023-11-18T01:56:09;1.60;99.90
57434;DHT22;43277;52.672;6.984;2023-11-18T01:58:37;1.60;99.90
57434;DHT22;43277;52.672;6.984;2023-11-18T02:01:03;1.70;99.90
57434;DHT22;43277;52.672;6.984;2023-11-18T02:03:34;1.70;99.90
57434;DHT22;43277;52.672;6.984;2023-11-18T02:06:00;1.80;99.90
57434;DHT22;43277;52.672;6.984;2023-11-18T02:08:25;1.80;99.90
57434;DHT22;43277;52.672;6.984;2023-11-18T02:11:02;1.80;99.90
57434;DHT22;43277;52.672;6.984;2023-11-18T02:13:33;1.90;99.90
57434;DHT22;43277;52.672;6.984;2023-11-18T02:15:59;1.90;99.90
57434;DHT22;43277;52.672;6.984;2023-11-18T02:18:29;1.90;99.90
57434;DHT22;43277;52.672;6.984;2023-11-18T02:20:56;1.90;99.90
57434;DHT22;43277;52.672;6.984;2023-11-18T02:23:28;1.90;99.90
57434;DHT22;43277;52.672;6.984;2023-11-18T02:25:53;2.00;99.90
57434;DHT22;43277;52.672;6.984;2023-11-18T02:28:21;2.00;99.90
57434;DHT22;43277;52.672;6.984;2023-11-18T02:30:46;1.90;99.90
57434;DHT22;43277;52.672;6.984;2023-11-18T02:35:51;2.00;99.90
57434;DHT22;43277;52.672;6.984;2023-11-18T02:38:24;2.10;99.90
57434;DHT22;43277;52.672;6.984;2023-11-18T02:40:52;2.10;99.90
57434;DHT22;43277;52.672;6.984;2023-11-18T02:43:24;2.20;99.90
57434;DHT22;43277;52.672;6.984;2023-11-18T02:45:50;2.20;99.90
57434;DHT22;43277;52.672;6.984;2023-11-18T02:48:17;2.20;99.90
57434;DHT22;43277;52.672;6.984;2023-11-18T02:50:43;2.30;99.90
57434;DHT22;43277;52.672;6.984;2023-11-18T02:53:09;2.30;99.90
57434;DHT22;43277;52.672;6.984;2023-11-18T02:55:35;2.30;99.90
57434;DHT22;43277;52.672;6.984;2023-11-18T02:58:02;2.30;99.90
57434;DHT22;43277;52.672;6.984;2023-11-18T03:00:28;2.30;99.90
57434;DHT22;43277;52.672;6.984;2023-11-18T03:02:54;2.30;99.90
57434;DHT22;43277;52.672;6.984;2023-11-18T03:05:20;2.30;99.90
57434;DHT22;43277;52.672;6.984;2023-11-18T03:07:46;2.30;99.90
57434;DHT22;43277;52.672;6.984;2023-11-18T03:10:16;2.20;99.90
57434;DHT22;43277;52.672;6.984;2023-11-18T03:12:49;2.20;99.90
57434;DHT22;43277;52.672;6.984;2023-11-18T03:15:16;2.20;99.90
57434;DHT22;43277;52.672;6.984;2023-11-18T03:17:51;2.20;99.90
57434;DHT22;43277;52.672;6.984;2023-11-18T03:20:18;2.10;99.90
57434;DHT22;43277;52.672;6.984;2023-11-18T03:22:44;2.20;99.90
57434;DHT22;43277;52.672;6.984;2023-11-18T03:25:11;2.20;99.90
57434;DHT22;43277;52.672;6.984;2023-11-18T03:27:37;2.10;99.90
57434;DHT22;43277;52.672;6.984;2023-11-18T03:30:04;2.10;99.90
57434;DHT22;43277;52.672;6.984;2023-11-18T03:32:29;2.10;99.90
57434;DHT22;43277;52.672;6.984;2023-11-18T03:34:56;2.20;99.90
57434;DHT22;43277;52.672;6.984;2023-11-18T03:37:24;2.20;99.90
57434;DHT22;43277;52.672;6.984;2023-11-18T03:39:52;2.10;99.90
57434;DHT22;43277;52.672;6.984;2023-11-18T03:42:17;2.10;99.90
57434;DHT22;43277;52.672;6.984;2023-11-18T03:44:43;2.00;99.90
57434;DHT22;43277;52.672;6.984;2023-11-18T03:47:10;2.00;99.90
57434;DHT22;43277;52.672;6.984;2023-11-18T03:49:36;2.10;99.90
57434;DHT22;43277;52.672;6.984;2023-11-18T03:52:02;2.00;99.90
57434;DHT22;43277;52.672;6.984;2023-11-18T03:54:27;2.10;99.90
57434;DHT22;43277;52.672;6.984;2023-11-18T03:56:53;2.10;99.90
57434;DHT22;43277;52.672;6.984;2023-11-18T03:59:19;2.10;99.90
57434;DHT22;43277;52.672;6.984;2023-11-18T04:01:44;2.10;99.90
57434;DHT22;43277;52.672;6.984;2023-11-18T04:04:10;2.10;99.90
57434;DHT22;43277;52.672;6.984;2023-11-18T04:06:36;2.10;99.90
57434;DHT22;43277;52.672;6.984;2023-11-18T04:09:01;2.20;99.90
57434;DHT22;43277;52.672;6.984;2023-11-18T04:11:28;2.10;99.90
57434;DHT22;43277;52.672;6.984;2023-11-18T04:13:53;2.10;99.90
57434;DHT22;43277;52.672;6.984;2023-11-18T04:16:19;2.10;99.90
57434;DHT22;43277;52.672;6.984;2023-11-18T04:18:45;2.10;99.90
57434;DHT22;43277;52.672;6.984;2023-11-18T04:21:11;2.10;99.90
57434;DHT22;43277;52.672;6.984;2023-11-18T04:23:39;2.10;99.90
57434;DHT22;43277;52.672;6.984;2023-11-18T04:26:06;2.10;99.90
57434;DHT22;43277;52.672;6.984;2023-11-18T04:28:33;2.10;99.90
57434;DHT22;43277;52.672;6.984;2023-11-18T04:30:59;2.10;99.90
57434;DHT22;43277;52.672;6.984;2023-11-18T04:33:25;2.10;99.90
57434;DHT22;43277;52.672;6.984;2023-11-18T04:35:51;2.10;99.90
57434;DHT22;43277;52.672;6.984;2023-11-18T04:38:17;2.10;99.90
57434;DHT22;43277;52.672;6.984;2023-11-18T04:40:44;2.10;99.90
57434;DHT22;43277;52.672;6.984;2023-11-18T04:43:11;2.20;99.90
57434;DHT22;43277;52.672;6.984;2023-11-18T04:45:37;2.20;99.90
57434;DHT22;43277;52.672;6.984;2023-11-18T04:48:03;2.20;99.90
57434;DHT22;43277;52.672;6.984;2023-11-18T04:50:30;2.20;99.90
57434;DHT22;43277;52.672;6.984;2023-11-18T04:52:57;2.30;99.90
57434;DHT22;43277;52.672;6.984;2023-11-18T04:55:22;2.30;99.90
57434;DHT22;43277;52.672;6.984;2023-11-18T04:57:48;2.30;99.90
57434;DHT22;43277;52.672;6.984;2023-11-18T05:00:14;2.30;99.90
57434;DHT22;43277;52.672;6.984;2023-11-18T05:02:42;2.30;99.90
57434;DHT22;43277;52.672;6.984;2023-11-18T05:05:08;2.30;99.90
57434;DHT22;43277;52.672;6.984;2023-11-18T05:07:34;2.30;99.90
57434;DHT22;43277;52.672;6.984;2023-11-18T05:10:01;2.30;99.90
57434;DHT22;43277;52.672;6.984;2023-11-18T05:12:27;2.40;99.90
57434;DHT22;43277;52.672;6.984;2023-11-18T05:14:57;2.40;99.90
57434;DHT22;43277;52.672;6.984;2023-11-18T05:17:23;2.40;99.90
57434;DHT22;43277;52.672;6.984;2023-11-18T05:19:49;2.40;99.90
57434;DHT22;43277;52.672;6.984;2023-11-18T05:22:14;2.50;99.90
57434;DHT22;43277;52.672;6.984;2023-11-18T05:24:41;2.50;99.90
57434;DHT22;43277;52.672;6.984;2023-11-18T05:27:06;2.50;99.90
57434;DHT22;43277;52.672;6.984;2023-11-18T05:29:33;2.50;99.90
57434;DHT22;43277;52.672;6.984;2023-11-18T05:31:59;2.60;99.90
57434;DHT22;43277;52.672;6.984;2023-11-18T05:34:25;2.60;99.90
57434;DHT22;43277;52.672;6.984;2023-11-18T05:36:50;2.60;99.90
57434;DHT22;43277;52.672;6.984;2023-11-18T05:39:23;2.60;99.90
57434;DHT22;43277;52.672;6.984;2023-11-18T05:41:50;2.60;99.90
57434;DHT22;43277;52.672;6.984;2023-11-18T05:44:17;2.70;99.90
57434;DHT22;43277;52.672;6.984;2023-11-18T05:46:45;2.60;99.90
57434;DHT22;43277;52.672;6.984;2023-11-18T05:49:17;2.70;99.90
57434;DHT22;43277;52.672;6.984;2023-11-18T05:51:43;2.70;99.90
57434;DHT22;43277;52.672;6.984;2023-11-18T05:54:10;2.70;99.90
57434;DHT22;43277;52.672;6.984;2023-11-18T05:56:36;2.70;99.90
57434;DHT22;43277;52.672;6.984;2023-11-18T05:59:02;2.90;99.90
57434;DHT22;43277;52.672;6.984;2023-11-18T06:01:31;2.70;99.90
57434;DHT22;43277;52.672;6.984;2023-11-18T06:03:57;2.70;99.90
57434;DHT22;43277;52.672;6.984;2023-11-18T06:06:23;2.70;99.90
57434;DHT22;43277;52.672;6.984;2023-11-18T06:08:49;2.90;99.90
57434;DHT22;43277;52.672;6.984;2023-11-18T06:11:15;2.80;99.90
57434;DHT22;43277;52.672;6.984;2023-11-18T06:16:19;2.80;99.90
57434;DHT22;43277;52.672;6.984;2023-11-18T06:18:53;2.80;99.90
57434;DHT22;43277;52.672;6.984;2023-11-18T06:21:26;2.80;99.90
57434;DHT22;43277;52.672;6.984;2023-11-18T06:23:56;2.80;99.90
57434;DHT22;43277;52.672;6.984;2023-11-18T06:26:22;2.80;99.90
57434;DHT22;43277;52.672;6.984;2023-11-18T06:28:48;2.80;99.90
57434;DHT22;43277;52.672;6.984;2023-11-18T06:31:16;2.80;99.90
57434;DHT22;43277;52.672;6.984;2023-11-18T06:33:44;2.80;99.90
57434;DHT22;43277;52.672;6.984;2023-11-18T06:38:39;2.80;99.90
57434;DHT22;43277;52.672;6.984;2023-11-18T06:41:06;2.80;99.90
57434;DHT22;43277;52.672;6.984;2023-11-18T06:43:37;2.80;99.90
57434;DHT22;43277;52.672;6.984;2023-11-18T06:46:32;2.80;99.90
57434;DHT22;43277;52.672;6.984;2023-11-18T06:49:01;2.80;99.90
57434;DHT22;43277;52.672;6.984;2023-11-18T06:51:31;2.80;99.90
57434;DHT22;43277;52.672;6.984;2023-11-18T06:54:00;2.90;99.90
57434;DHT22;43277;52.672;6.984;2023-11-18T06:56:29;2.80;99.90
57434;DHT22;43277;52.672;6.984;2023-11-18T06:58:55;2.80;99.90
57434;DHT22;43277;52.672;6.984;2023-11-18T07:01:21;2.80;99.90
57434;DHT22;43277;52.672;6.984;2023-11-18T07:03:48;2.70;99.90
57434;DHT22;43277;52.672;6.984;2023-11-18T07:06:21;2.70;99.90
57434;DHT22;43277;52.672;6.984;2023-11-18T07:08:52;2.70;99.90
57434;DHT22;43277;52.672;6.984;2023-11-18T07:11:19;2.70;99.90
57434;DHT22;43277;52.672;6.984;2023-11-18T07:13:47;2.70;99.90
57434;DHT22;43277;52.672;6.984;2023-11-18T07:16:13;2.70;99.90
57434;DHT22;43277;52.672;6.984;2023-11-18T07:18:40;2.60;99.90
57434;DHT22;43277;52.672;6.984;2023-11-18T07:21:07;2.70;99.90
57434;DHT22;43277;52.672;6.984;2023-11-18T07:23:35;2.70;99.90
57434;DHT22;43277;52.672;6.984;2023-11-18T07:26:01;2.70;99.90
57434;DHT22;43277;52.672;6.984;2023-11-18T07:28:27;2.70;99.90
57434;DHT22;43277;52.672;6.984;2023-11-18T07:30:53;2.70;99.90
57434;DHT22;43277;52.672;6.984;2023-11-18T07:33:20;2.70;99.90
57434;DHT22;43277;52.672;6.984;2023-11-18T07:35:47;2.80;99.90
57434;DHT22;43277;52.672;6.984;2023-11-18T07:38:14;2.70;99.90
57434;DHT22;43277;52.672;6.984;2023-11-18T07:40:40;2.70;99.90
57434;DHT22;43277;52.672;6.984;2023-11-18T07:43:14;2.70;99.90
57434;DHT22;43277;52.672;6.984;2023-11-18T07:45:40;2.80;99.90
57434;DHT22;43277;52.672;6.984;2023-11-18T07:48:09;2.80;99.90
57434;DHT22;43277;52.672;6.984;2023-11-18T07:50:35;2.80;99.90
57434;DHT22;43277;52.672;6.984;2023-11-18T07:53:02;2.80;99.90
57434;DHT22;43277;52.672;6.984;2023-11-18T07:55:28;2.80;99.90
57434;DHT22;43277;52.672;6.984;2023-11-18T07:57:54;2.80;99.90
57434;DHT22;43277;52.672;6.984;2023-11-18T08:00:20;2.80;99.90
57434;DHT22;43277;52.672;6.984;2023-11-18T08:02:46;2.80;99.90
57434;DHT22;43277;52.672;6.984;2023-11-18T08:05:12;2.90;99.90
57434;DHT22;43277;52.672;6.984;2023-11-18T08:07:41;2.90;99.90
57434;DHT22;43277;52.672;6.984;2023-11-18T08:10:09;2.90;99.90
57434;DHT22;43277;52.672;6.984;2023-11-18T08:12:39;3.00;99.90
57434;DHT22;43277;52.672;6.984;2023-11-18T08:15:06;3.10;99.90
57434;DHT22;43277;52.672;6.984;2023-11-18T08:17:35;3.00;99.90
57434;DHT22;43277;52.672;6.984;2023-11-18T08:20:01;3.10;99.90
57434;DHT22;43277;52.672;6.984;2023-11-18T08:22:26;3.10;99.90
57434;DHT22;43277;52.672;6.984;2023-11-18T08:24:52;3.10;99.90
57434;DHT22;43277;52.672;6.984;2023-11-18T08:27:18;3.10;99.90
57434;DHT22;43277;52.672;6.984;2023-11-18T08:29:44;3.20;99.90
57434;DHT22;43277;52.672;6.984;2023-11-18T08:32:11;3.20;99.90
57434;DHT22;43277;52.672;6.984;2023-11-18T08:34:37;3.20;99.90
57434;DHT22;43277;52.672;6.984;2023-11-18T08:37:07;3.20;99.90
57434;DHT22;43277;52.672;6.984;2023-11-18T08:39:34;3.20;99.90
57434;DHT22;43277;52.672;6.984;2023-11-18T08:42:01;3.30;99.90
57434;DHT22;43277;52.672;6.984;2023-11-18T08:44:27;3.30;99.90
57434;DHT22;43277;52.672;6.984;2023-11-18T08:46:53;3.30;99.90
57434;DHT22;43277;52.672;6.984;2023-11-18T08:49:19;3.40;99.90
57434;DHT22;43277;52.672;6.984;2023-11-18T08:51:49;3.40;99.90
57434;DHT22;43277;52.672;6.984;2023-11-18T08:54:18;3.40;99.90
57434;DHT22;43277;52.672;6.984;2023-11-18T08:56:54;3.40;99.90
57434;DHT22;43277;52.672;6.984;2023-11-18T08:59:20;3.40;99.90
57434;DHT22;43277;52.672;6.984;2023-11-18T09:01:53;3.50;99.90
57434;DHT22;43277;52.672;6.984;2023-11-18T09:04:27;3.50;99.90
57434;DHT22;43277;52.672;6.984;2023-11-18T09:06:53;3.70;99.90
57434;DHT22;43277;52.672;6.984;2023-11-18T09:09:23;3.60;99.90
57434;DHT22;43277;52.672;6.984;2023-11-18T09:11:57;3.60;99.90
57434;DHT22;43277;52.672;6.984;2023-11-18T09:14:26;3.70;99.90
57434;DHT22;43277;52.672;6.984;2023-11-18T09:16:53;3.70;99.90
57434;DHT22;43277;52.672;6.984;2023-11-18T09:19:21;3.80;99.90
57434;DHT22;43277;52.672;6.984;2023-11-18T09:21:47;3.80;99.90
57434;DHT22;43277;52.672;6.984;2023-11-18T09:24:14;3.80;99.90
57434;DHT22;43277;52.672;6.984;2023-11-18T09:26:43;3.90;99.90
57434;DHT22;43277;52.672;6.984;2023-11-18T09:29:16;3.90;99.90
57434;DHT22;43277;52.672;6.984;2023-11-18T09:31:47;4.00;99.90
57434;DHT22;43277;52.672;6.984;2023-11-18T09:34:18;4.00;99.90
57434;DHT22;43277;52.672;6.984;2023-11-18T09:36:44;4.10;99.90
57434;DHT22;43277;52.672;6.984;2023-11-18T09:39:10;4.20;99.90
57434;DHT22;43277;52.672;6.984;2023-11-18T09:41:57;4.20;99.90
57434;DHT22;43277;52.672;6.984;2023-11-18T09:44:24;4.20;99.90
57434;DHT22;43277;52.672;6.984;2023-11-18T09:46:57;4.30;99.90
57434;DHT22;43277;52.672;6.984;2023-11-18T09:49:32;4.30;99.90
57434;DHT22;43277;52.672;6.984;2023-11-18T09:52:05;4.30;99.90
57434;DHT22;43277;52.672;6.984;2023-11-18T09:54:40;4.40;99.90
57434;DHT22;43277;52.672;6.984;2023-11-18T09:57:37;4.40;99.90
57434;DHT22;43277;52.672;6.984;2023-11-18T10:00:09;4.40;99.90
57434;DHT22;43277;52.672;6.984;2023-11-18T10:02:45;4.40;99.90
57434;DHT22;43277;52.672;6.984;2023-11-18T10:05:12;4.50;99.90
57434;DHT22;43277;52.672;6.984;2023-11-18T10:07:42;4.50;99.90
57434;DHT22;43277;52.672;6.984;2023-11-18T10:10:10;4.50;99.90
57434;DHT22;43277;52.672;6.984;2023-11-18T10:12:42;4.50;99.90
57434;DHT22;43277;52.672;6.984;2023-11-18T10:15:13;4.60;99.90
57434;DHT22;43277;52.672;6.984;2023-11-18T10:17:42;4.60;99.90
57434;DHT22;43277;52.672;6.984;2023-11-18T10:23:10;4.70;99.90
57434;DHT22;43277;52.672;6.984;2023-11-18T10:25:50;4.70;99.90
57434;DHT22;43277;52.672;6.984;2023-11-18T10:28:23;4.70;99.90
57434;DHT22;43277;52.672;6.984;2023-11-18T10:30:50;4.70;99.90
57434;DHT22;43277;52.672;6.984;2023-11-18T10:33:17;4.70;99.90
57434;DHT22;43277;52.672;6.984;2023-11-18T10:35:50;4.70;99.90
57434;DHT22;43277;52.672;6.984;2023-11-18T10:38:17;4.70;99.90
57434;DHT22;43277;52.672;6.984;2023-11-18T10:40:43;4.70;99.90
57434;DHT22;43277;52.672;6.984;2023-11-18T10:43:09;4.70;99.90
57434;DHT22;43277;52.672;6.984;2023-11-18T10:45:36;4.70;99.90
57434;DHT22;43277;52.672;6.984;2023-11-18T10:48:08;4.70;99.90
57434;DHT22;43277;52.672;6.984;2023-11-18T10:50:34;4.70;99.90
57434;DHT22;43277;52.672;6.984;2023-11-18T10:53:02;4.80;99.90
57434;DHT22;43277;52.672;6.984;2023-11-18T10:55:35;4.80;99.90
57434;DHT22;43277;52.672;6.984;2023-11-18T10:58:01;4.80;99.90
57434;DHT22;43277;52.672;6.984;2023-11-18T11:00:27;4.80;99.90
57434;DHT22;43277;52.672;6.984;2023-11-18T11:02:59;4.80;99.90
57434;DHT22;43277;52.672;6.984;2023-11-18T11:05:28;4.90;99.90
57434;DHT22;43277;52.672;6.984;2023-11-18T11:07:58;4.90;99.90
57434;DHT22;43277;52.672;6.984;2023-11-18T11:10:25;4.90;99.90
57434;DHT22;43277;52.672;6.984;2023-11-18T11:12:54;4.90;99.90
57434;DHT22;43277;52.672;6.984;2023-11-18T11:15:29;5.00;99.90
57434;DHT22;43277;52.672;6.984;2023-11-18T11:18:11;4.90;99.90
57434;DHT22;43277;52.672;6.984;2023-11-18T11:21:02;4.90;99.90
57434;DHT22;43277;52.672;6.984;2023-11-18T11:23:55;5.00;99.90
57434;DHT22;43277;52.672;6.984;2023-11-18T11:26:40;5.00;99.90
57434;DHT22;43277;52.672;6.984;2023-11-18T11:29:18;5.00;99.90
57434;DHT22;43277;52.672;6.984;2023-11-18T11:31:56;5.00;99.90
57434;DHT22;43277;52.672;6.984;2023-11-18T11:34:26;5.00;99.90
57434;DHT22;43277;52.672;6.984;2023-11-18T11:36:56;5.10;99.90
57434;DHT22;43277;52.672;6.984;2023-11-18T11:39:24;5.10;99.90
57434;DHT22;43277;52.672;6.984;2023-11-18T11:41:55;5.10;99.90
57434;DHT22;43277;52.672;6.984;2023-11-18T11:44:22;5.10;99.90
57434;DHT22;43277;52.672;6.984;2023-11-18T11:46:55;5.20;99.90
57434;DHT22;43277;52.672;6.984;2023-11-18T11:49:23;5.20;99.90
57434;DHT22;43277;52.672;6.984;2023-11-18T11:52:10;5.20;99.90
57434;DHT22;43277;52.672;6.984;2023-11-18T11:54:52;5.30;99.90
57434;DHT22;43277;52.672;6.984;2023-11-18T11:57:22;5.30;99.90
57434;DHT22;43277;52.672;6.984;2023-11-18T12:02:20;5.30;99.90
57434;DHT22;43277;52.672;6.984;2023-11-18T12:04:50;5.30;99.90
57434;DHT22;43277;52.672;6.984;2023-11-18T12:07:20;5.30;99.90
57434;DHT22;43277;52.672;6.984;2023-11-18T12:09:54;5.30;99.90
57434;DHT22;43277;52.672;6.984;2023-11-18T12:12:23;5.30;99.90
57434;DHT22;43277;52.672;6.984;2023-11-18T12:14:58;5.40;99.90
57434;DHT22;43277;52.672;6.984;2023-11-18T12:17:26;5.30;99.90
57434;DHT22;43277;52.672;6.984;2023-11-18T12:19:58;5.40;99.90
57434;DHT22;43277;52.672;6.984;2023-11-18T12:23:04;5.40;99.90
57434;DHT22;43277;52.672;6.984;2023-11-18T12:25:39;5.30;99.90
57434;DHT22;43277;52.672;6.984;2023-11-18T12:28:14;5.30;99.90
57434;DHT22;43277;52.672;6.984;2023-11-18T12:30:41;5.30;99.90
57434;DHT22;43277;52.672;6.984;2023-11-18T12:33:51;5.30;99.90
57434;DHT22;43277;52.672;6.984;2023-11-18T12:42:01;5.40;99.90
57434;DHT22;43277;52.672;6.984;2023-11-18T12:44:36;5.40;99.90
57434;DHT22;43277;52.672;6.984;2023-11-18T12:47:05;5.40;99.90
57434;DHT22;43277;52.672;6.984;2023-11-18T12:49:43;5.40;99.90
57434;DHT22;43277;52.672;6.984;2023-11-18T12:52:10;5.40;99.90
57434;DHT22;43277;52.672;6.984;2023-11-18T12:54:37;5.40;99.90
57434;DHT22;43277;52.672;6.984;2023-11-18T12:57:03;5.40;99.90
57434;DHT22;43277;52.672;6.984;2023-11-18T12:59:33;5.50;99.90
57434;DHT22;43277;52.672;6.984;2023-11-18T13:01:59;5.50;99.90
57434;DHT22;43277;52.672;6.984;2023-11-18T13:04:30;5.50;99.90
57434;DHT22;43277;52.672;6.984;2023-11-18T13:06:57;5.50;99.90
57434;DHT22;43277;52.672;6.984;2023-11-18T13:09:23;5.50;99.90
57434;DHT22;43277;52.672;6.984;2023-11-18T13:11:56;5.50;99.90
57434;DHT22;43277;52.672;6.984;2023-11-18T13:14:26;5.40;99.90
57434;DHT22;43277;52.672;6.984;2023-11-18T13:16:56;5.40;99.90
57434;DHT22;43277;52.672;6.984;2023-11-18T13:19:29;5.40;99.90
57434;DHT22;43277;52.672;6.984;2023-11-18T13:22:02;5.50;99.90
57434;DHT22;43277;52.672;6.984;2023-11-18T13:24:30;5.50;99.90
57434;DHT22;43277;52.672;6.984;2023-11-18T13:26:56;5.50;99.90
57434;DHT22;43277;52.672;6.984;2023-11-18T13:29:25;5.50;99.90
57434;DHT22;43277;52.672;6.984;2023-11-18T13:31:51;5.50;99.90
57434;DHT22;43277;52.672;6.984;2023-11-18T13:34:20;5.50;99.90
57434;DHT22;43277;52.672;6.984;2023-11-18T13:36:49;5.50;99.90
57434;DHT22;43277;52.672;6.984;2023-11-18T13:39:19;5.50;99.90
57434;DHT22;43277;52.672;6.984;2023-11-18T13:41:48;5.60;99.90
57434;DHT22;43277;52.672;6.984;2023-11-18T13:44:35;5.60;99.90
57434;DHT22;43277;52.672;6.984;2023-11-18T13:47:04;5.50;99.90
57434;DHT22;43277;52.672;6.984;2023-11-18T13:49:31;5.60;99.90
57434;DHT22;43277;52.672;6.984;2023-11-18T13:51:57;5.60;99.90
57434;DHT22;43277;52.672;6.984;2023-11-18T13:54:24;5.60;99.90
57434;DHT22;43277;52.672;6.984;2023-11-18T13:56:51;5.60;99.90
57434;DHT22;43277;52.672;6.984;2023-11-18T13:59:18;5.70;99.90
57434;DHT22;43277;52.672;6.984;2023-11-18T14:01:44;5.70;99.90
57434;DHT22;43277;52.672;6.984;2023-11-18T14:04:11;5.70;99.90
57434;DHT22;43277;52.672;6.984;2023-11-18T14:06:37;5.70;99.90
57434;DHT22;43277;52.672;6.984;2023-11-18T14:09:05;5.70;99.90
57434;DHT22;43277;52.672;6.984;2023-11-18T14:11:31;5.70;99.90
57434;DHT22;43277;52.672;6.984;2023-11-18T14:13:56;5.80;99.90
57434;DHT22;43277;52.672;6.984;2023-11-18T14:16:24;5.70;99.90
57434;DHT22;43277;52.672;6.984;2023-11-18T14:18:52;5.80;99.90
57434;DHT22;43277;52.672;6.984;2023-11-18T14:21:18;5.80;99.90
57434;DHT22;43277;52.672;6.984;2023-11-18T14:23:44;5.80;99.90
57434;DHT22;43277;52.672;6.984;2023-11-18T14:26:10;5.80;99.90
57434;DHT22;43277;52.672;6.984;2023-11-18T14:28:36;5.90;99.90
57434;DHT22;43277;52.672;6.984;2023-11-18T14:31:02;5.90;99.90
57434;DHT22;43277;52.672;6.984;2023-11-18T14:33:33;5.90;99.90
57434;DHT22;43277;52.672;6.984;2023-11-18T14:35:59;5.90;99.90
57434;DHT22;43277;52.672;6.984;2023-11-18T14:38:26;5.90;99.90
57434;DHT22;43277;52.672;6.984;2023-11-18T14:40:52;6.00;99.90
57434;DHT22;43277;52.672;6.984;2023-11-18T14:43:19;6.00;99.90
57434;DHT22;43277;52.672;6.984;2023-11-18T14:45:45;6.00;99.90
57434;DHT22;43277;52.672;6.984;2023-11-18T14:48:10;6.00;99.90
57434;DHT22;43277;52.672;6.984;2023-11-18T14:50:36;6.00;99.90
57434;DHT22;43277;52.672;6.984;2023-11-18T14:53:03;6.20;99.90
57434;DHT22;43277;52.672;6.984;2023-11-18T14:55:31;6.00;99.90
57434;DHT22;43277;52.672;6.984;2023-11-18T14:57:58;6.00;99.90
57434;DHT22;43277;52.672;6.984;2023-11-18T15:00:24;6.00;99.90
57434;DHT22;43277;52.672;6.984;2023-11-18T15:02:53;6.10;99.90
57434;DHT22;43277;52.672;6.984;2023-11-18T15:05:21;6.10;99.90
57434;DHT22;43277;52.672;6.984;2023-11-18T15:08:04;6.10;99.90
57434;DHT22;43277;52.672;6.984;2023-11-18T15:10:34;6.10;99.90
57434;DHT22;43277;52.672;6.984;2023-11-18T15:13:02;6.20;99.90
57434;DHT22;43277;52.672;6.984;2023-11-18T15:15:32;6.20;99.90
57434;DHT22;43277;52.672;6.984;2023-11-18T15:17:58;6.20;99.90
57434;DHT22;43277;52.672;6.984;2023-11-18T15:20:25;6.20;99.90
57434;DHT22;43277;52.672;6.984;2023-11-18T15:22:51;6.20;99.90
57434;DHT22;43277;52.672;6.984;2023-11-18T15:25:17;6.20;99.90
57434;DHT22;43277;52.672;6.984;2023-11-18T15:27:46;6.30;99.90
57434;DHT22;43277;52.672;6.984;2023-11-18T15:30:13;6.30;99.90
57434;DHT22;43277;52.672;6.984;2023-11-18T15:32:40;6.40;99.90
57434;DHT22;43277;52.672;6.984;2023-11-18T15:35:06;6.30;99.90
57434;DHT22;43277;52.672;6.984;2023-11-18T15:37:40;6.30;99.90
57434;DHT22;43277;52.672;6.984;2023-11-18T15:40:12;6.40;99.90
57434;DHT22;43277;52.672;6.984;2023-11-18T15:42:42;6.40;99.90
57434;DHT22;43277;52.672;6.984;2023-11-18T15:45:12;6.40;99.90
57434;DHT22;43277;52.672;6.984;2023-11-18T15:47:39;6.40;99.90
57434;DHT22;43277;52.672;6.984;2023-11-18T15:50:10;6.40;99.90
57434;DHT22;43277;52.672;6.984;2023-11-18T15:52:40;6.50;99.90
57434;DHT22;43277;52.672;6.984;2023-11-18T15:55:06;6.50;99.90
57434;DHT22;43277;52.672;6.984;2023-11-18T15:57:43;6.60;99.90
57434;DHT22;43277;52.672;6.984;2023-11-18T16:00:10;6.60;99.90
57434;DHT22;43277;52.672;6.984;2023-11-18T16:02:44;6.60;99.90
57434;DHT22;43277;52.672;6.984;2023-11-18T16:05:14;6.60;99.90
57434;DHT22;43277;52.672;6.984;2023-11-18T16:07:42;6.60;99.90
57434;DHT22;43277;52.672;6.984;2023-11-18T16:10:08;6.60;99.90
57434;DHT22;43277;52.672;6.984;2023-11-18T16:12:34;6.60;99.90